Time;durP1;ratioP1;P1;durP2;ratioP2;P2;SDS_P1;SDS_P2;PMS_P1;PMS_P2;Temp;Humidity;BMP_temperature;BMP_pressure;BME280_temperature;BME280_humidity;BME280_pressure;Samples;Min_cycle;Max_cycle;Signal;HPM_P1;HPM_P2
2021/10/21 00:01:35;;;;;;;13.73;8.20;;;;;;;7.56;74.53;98294.78;5114074;28;20031;-58
2021/10/21 00:04:01;;;;;;;14.32;8.20;;;;;;;7.55;74.43;98298.44;5113409;28;20054;-58
2021/10/21 00:06:27;;;;;;;14.20;8.68;;;;;;;7.58;74.34;98286.63;5112791;28;20073;-58
2021/10/21 00:08:52;;;;;;;14.23;8.60;;;;;;;7.45;74.43;98247.84;5112049;28;20051;-56
2021/10/21 00:11:18;;;;;;;12.80;8.05;;;;;;;7.68;74.71;98265.31;5113623;28;20426;-54
2021/10/21 00:13:43;;;;;;;17.80;8.40;;;;;;;7.69;74.74;98249.19;5113161;28;20036;-57
2021/10/21 00:16:09;;;;;;;19.27;8.60;;;;;;;7.72;74.83;98259.56;5112617;28;20028;-59
2021/10/21 00:18:34;;;;;;;14.10;8.30;;;;;;;7.75;74.78;98258.44;5094722;28;20030;-59
2021/10/21 00:21:00;;;;;;;15.10;8.93;;;;;;;7.51;74.50;98214.50;5094731;28;20065;-58
2021/10/21 00:23:26;;;;;;;13.82;8.50;;;;;;;7.74;74.67;98262.94;5112953;28;20190;-58
2021/10/21 00:25:51;;;;;;;15.68;8.90;;;;;;;7.65;74.61;98236.31;5094241;28;20028;-57
2021/10/21 00:28:17;;;;;;;15.43;8.63;;;;;;;7.83;74.99;98265.69;5112414;28;20475;-58
2021/10/21 00:30:42;;;;;;;14.27;8.70;;;;;;;7.86;74.99;98258.25;5112564;28;20573;-61
2021/10/21 00:33:08;;;;;;;16.38;9.27;;;;;;;7.92;74.70;98262.19;5113229;28;20464;-56
2021/10/21 00:35:33;;;;;;;15.48;9.05;;;;;;;7.95;75.28;98271.69;5094180;28;20043;-56
2021/10/21 00:37:59;;;;;;;17.45;9.23;;;;;;;7.95;75.05;98258.38;5112142;28;20027;-56
2021/10/21 00:40:25;;;;;;;19.73;9.32;;;;;;;7.99;74.86;98267.78;5112292;28;20031;-60
2021/10/21 00:42:50;;;;;;;15.70;9.38;;;;;;;7.94;75.01;98243.34;5126483;27;20028;-59
2021/10/21 00:45:16;;;;;;;17.00;9.27;;;;;;;8.09;74.63;98238.41;5127564;27;20023;-58
2021/10/21 00:47:42;;;;;;;17.20;9.35;;;;;;;8.13;74.56;98243.28;5132576;27;20475;-61
2021/10/21 00:50:08;;;;;;;19.33;10.20;;;;;;;8.12;75.09;98238.13;5097337;27;20127;-57
2021/10/21 00:52:33;;;;;;;16.52;9.60;;;;;;;8.12;74.91;98217.63;5116767;27;20027;-60
2021/10/21 00:54:59;;;;;;;17.65;9.57;;;;;;;8.17;74.91;98215.34;5093710;28;20042;-58
2021/10/21 00:57:26;;;;;;;16.17;8.98;;;;;;;8.18;75.10;98225.00;5120082;27;20032;-58
2021/10/21 00:59:52;;;;;;;14.38;9.55;;;;;;;8.22;75.01;98224.75;5117046;27;20031;-56
2021/10/21 01:02:17;;;;;;;15.65;9.63;;;;;;;8.07;74.79;98181.72;5111527;28;20035;-61
2021/10/21 01:04:43;;;;;;;16.40;9.63;;;;;;;8.29;75.04;98193.81;5111989;28;20101;-58
2021/10/21 01:07:09;;;;;;;15.55;9.70;;;;;;;8.29;75.08;98175.16;5112262;28;20057;-57
2021/10/21 01:09:37;;;;;;;17.58;10.18;;;;;;;8.12;75.07;98153.63;5127368;27;20134;-59
2021/10/21 01:12:04;;;;;;;14.65;9.13;;;;;;;8.29;75.22;98162.66;5110181;28;20149;-57
2021/10/21 01:14:29;;;;;;;14.60;9.43;;;;;;;8.34;75.33;98164.88;5092875;27;20113;-57
2021/10/21 01:16:55;;;;;;;18.73;10.65;;;;;;;8.27;74.77;98150.47;5122908;27;20044;-56
2021/10/21 01:19:24;;;;;;;18.38;11.00;;;;;;;8.33;75.39;98158.72;5131106;27;20110;-57
2021/10/21 01:21:52;;;;;;;14.20;9.18;;;;;;;8.48;75.11;98182.19;5132639;27;20035;-58
2021/10/21 01:24:19;;;;;;;14.40;9.77;;;;;;;8.50;75.22;98180.22;5111716;28;20048;-56
2021/10/21 01:26:47;;;;;;;17.65;10.48;;;;;;;8.59;74.94;98174.00;5110703;28;20080;-56
2021/10/21 01:29:14;;;;;;;14.18;8.70;;;;;;;8.59;74.97;98178.50;5112317;28;20032;-56
2021/10/21 01:31:40;;;;;;;15.32;9.27;;;;;;;8.59;75.11;98175.81;5111921;28;20035;-55
2021/10/21 01:34:08;;;;;;;14.07;9.25;;;;;;;8.65;74.95;98182.38;5110949;28;20424;-58
2021/10/21 01:36:33;;;;;;;16.17;10.38;;;;;;;8.65;75.26;98167.19;5127444;27;20111;-52
2021/10/21 01:38:59;;;;;;;17.00;9.65;;;;;;;8.73;75.00;98169.09;5131009;27;20050;-56
2021/10/21 01:41:25;;;;;;;16.42;9.85;;;;;;;8.78;75.17;98166.00;5126394;27;20031;-58
2021/10/21 01:43:50;;;;;;;18.92;9.60;;;;;;;8.79;74.95;98154.31;5113334;27;20023;-58
2021/10/21 01:46:16;;;;;;;15.65;9.38;;;;;;;8.79;75.26;98138.31;5131978;27;20061;-59
2021/10/21 01:48:41;;;;;;;16.40;9.50;;;;;;;8.87;74.77;98130.38;5113270;27;20105;-58
2021/10/21 01:51:07;;;;;;;16.38;9.70;;;;;;;8.88;74.92;98140.03;5111176;28;20475;-56
2021/10/21 01:53:34;;;;;;;14.68;9.45;;;;;;;8.88;74.87;98156.06;5110070;28;20027;-59
2021/10/21 01:55:59;;;;;;;16.42;9.60;;;;;;;8.89;75.27;98157.72;5093297;28;20519;-60
2021/10/21 01:58:25;;;;;;;15.63;8.98;;;;;;;8.82;75.03;98133.53;5093466;28;20106;-56
2021/10/21 02:00:50;;;;;;;14.48;9.15;;;;;;;8.95;74.98;98130.44;5110403;28;20140;-57
2021/10/21 02:03:15;;;;;;;15.73;9.70;;;;;;;8.96;75.19;98118.78;5111067;28;20433;-57
2021/10/21 02:05:41;;;;;;;14.32;9.02;;;;;;;9.06;75.15;98132.03;5118820;27;20118;-55
2021/10/21 02:08:06;;;;;;;17.50;9.40;;;;;;;9.11;74.98;98126.19;5112490;28;20088;-57
2021/10/21 02:10:32;;;;;;;15.20;8.88;;;;;;;9.12;75.34;98133.22;5130704;28;20039;-57
2021/10/21 02:12:57;;;;;;;17.02;9.10;;;;;;;9.18;75.06;98135.28;5113902;28;20027;-56
2021/10/21 02:15:23;;;;;;;14.63;9.10;;;;;;;9.17;74.62;98144.28;5111247;28;20032;-56
2021/10/21 02:17:48;;;;;;;14.02;8.90;;;;;;;9.18;75.04;98132.59;5111030;28;20019;-61
2021/10/21 02:20:15;;;;;;;14.45;8.65;;;;;;;9.21;74.93;98124.28;5124424;28;20039;-57
2021/10/21 02:22:41;;;;;;;12.57;8.73;;;;;;;9.24;75.25;98139.97;5131532;28;20046;-56
2021/10/21 02:25:09;;;;;;;16.42;9.27;;;;;;;9.27;74.98;98126.31;5126031;28;20035;-59
2021/10/21 02:27:35;;;;;;;13.55;9.15;;;;;;;9.28;75.16;98124.47;5130998;28;20118;-58
2021/10/21 02:30:00;;;;;;;15.85;9.00;;;;;;;9.29;74.98;98112.81;5121460;27;20070;-57
2021/10/21 02:32:27;;;;;;;16.95;9.50;;;;;;;9.13;75.00;98073.47;5112210;28;20035;-56
2021/10/21 02:34:52;;;;;;;14.60;9.65;;;;;;;9.18;75.16;98065.84;5113475;27;20031;-54
2021/10/21 02:37:18;;;;;;;14.43;9.60;;;;;;;9.43;75.37;98106.03;5122121;27;20111;-57
2021/10/21 02:39:43;;;;;;;18.63;9.55;;;;;;;9.46;75.27;98101.19;5132689;27;20050;-55
2021/10/21 02:42:09;;;;;;;15.70;10.65;;;;;;;9.47;75.48;98099.38;5130850;27;20031;-57
2021/10/21 02:44:34;;;;;;;16.15;9.48;;;;;;;9.48;75.37;98098.38;5113699;28;20138;-56
2021/10/21 02:47:00;;;;;;;18.30;9.63;;;;;;;9.52;75.04;98094.38;5114504;28;20073;-59
2021/10/21 02:49:25;;;;;;;15.95;9.48;;;;;;;9.56;75.29;98090.41;5113592;28;20062;-60
2021/10/21 02:51:51;;;;;;;16.75;9.90;;;;;;;9.47;75.11;98059.31;5096130;28;20032;-58
2021/10/21 02:54:16;;;;;;;17.88;10.80;;;;;;;9.66;75.22;98079.59;5114807;28;20475;-58
2021/10/21 02:56:42;;;;;;;18.23;10.68;;;;;;;9.60;75.27;98070.38;5095615;28;20034;-60
2021/10/21 02:59:07;;;;;;;17.00;10.40;;;;;;;9.68;75.19;98069.56;5079193;28;20039;-58
2021/10/21 03:01:33;;;;;;;16.33;10.65;;;;;;;9.74;75.40;98090.28;5114493;28;20102;-57
2021/10/21 03:03:59;;;;;;;18.52;10.82;;;;;;;9.56;75.29;98055.66;5095708;28;20494;-57
2021/10/21 03:06:24;;;;;;;18.42;10.50;;;;;;;9.83;75.39;98082.31;5113964;28;20023;-57
2021/10/21 03:08:50;;;;;;;18.33;11.48;;;;;;;9.83;75.26;98071.63;5113592;28;20048;-56
2021/10/21 03:11:15;;;;;;;16.95;10.88;;;;;;;9.85;75.18;98067.78;5120235;27;20199;-56
2021/10/21 03:13:41;;;;;;;19.77;11.10;;;;;;;9.93;75.33;98069.66;5129430;27;20115;-56
2021/10/21 03:16:06;;;;;;;18.92;11.80;;;;;;;9.95;74.97;98066.81;5132239;27;20113;-56
2021/10/21 03:18:32;;;;;;;19.83;11.88;;;;;;;9.87;74.88;98044.41;5134658;27;20457;-57
2021/10/21 03:20:57;;;;;;;22.25;12.30;;;;;;;9.99;75.07;98054.78;5114364;27;20137;-57
2021/10/21 03:23:24;;;;;;;19.92;11.88;;;;;;;10.00;75.06;98049.28;5114322;28;20092;-55
2021/10/21 03:25:51;;;;;;;22.25;12.27;;;;;;;10.02;75.22;98049.13;5114026;28;20077;-57
2021/10/21 03:28:16;;;;;;;21.65;13.02;;;;;;;10.04;75.29;98025.72;5127065;27;20035;-58
2021/10/21 03:30:42;;;;;;;22.08;13.27;;;;;;;10.02;75.19;98015.22;5134338;27;20421;-61
2021/10/21 03:33:07;;;;;;;21.13;13.05;;;;;;;9.99;74.70;98012.03;5122882;27;20459;-55
2021/10/21 03:35:33;;;;;;;24.20;13.90;;;;;;;10.14;74.85;98039.78;5134167;27;20054;-55
2021/10/21 03:37:58;;;;;;;21.60;13.38;;;;;;;10.10;75.01;98041.09;5133441;27;20049;-56
2021/10/21 03:40:24;;;;;;;20.85;13.40;;;;;;;10.14;74.97;98050.50;5122724;27;20114;-57
2021/10/21 03:42:49;;;;;;;22.08;13.98;;;;;;;10.16;75.23;98050.31;5133762;27;20027;-55
2021/10/21 03:45:14;;;;;;;24.77;13.45;;;;;;;10.03;74.80;98024.06;5123110;27;20030;-58
2021/10/21 03:47:40;;;;;;;22.25;13.35;;;;;;;10.05;74.84;98022.03;5113480;28;20034;-56
2021/10/21 03:50:06;;;;;;;21.55;13.57;;;;;;;10.26;74.79;98024.25;5113370;28;20035;-58
2021/10/21 03:52:33;;;;;;;23.60;14.80;;;;;;;10.31;74.93;98021.06;5113711;28;20027;-59
2021/10/21 03:54:58;;;;;;;25.02;14.98;;;;;;;10.38;74.54;98024.75;5113367;27;20539;-58
2021/10/21 03:57:24;;;;;;;25.58;14.48;;;;;;;10.35;74.81;98022.41;5124644;27;20038;-58
2021/10/21 03:59:49;;;;;;;22.33;13.70;;;;;;;10.37;74.79;98039.16;5113730;28;20106;-59
2021/10/21 04:02:15;;;;;;;26.08;14.57;;;;;;;10.43;74.54;98051.88;5113397;28;20135;-59
2021/10/21 04:04:40;;;;;;;20.67;13.70;;;;;;;10.46;74.61;98045.34;5113039;28;20035;-60
2021/10/21 04:07:06;;;;;;;22.25;14.00;;;;;;;10.48;74.40;98038.81;5112804;28;20047;-60
2021/10/21 04:09:31;;;;;;;21.45;14.55;;;;;;;10.53;74.38;98045.50;5094059;28;20134;-59
2021/10/21 04:11:57;;;;;;;25.95;14.93;;;;;;;10.57;74.22;98038.81;5113761;28;20054;-59
2021/10/21 04:14:22;;;;;;;22.25;14.82;;;;;;;10.60;74.25;98028.63;5113419;28;20133;-58
2021/10/21 04:16:48;;;;;;;22.60;14.38;;;;;;;10.59;74.24;98021.59;5112619;28;20047;-57
2021/10/21 04:19:13;;;;;;;21.60;14.70;;;;;;;10.66;73.98;98027.13;5112757;28;20049;-58
2021/10/21 04:21:39;;;;;;;21.55;13.55;;;;;;;10.66;74.05;98004.84;5112931;28;20031;-59
2021/10/21 04:24:04;;;;;;;23.67;14.60;;;;;;;10.70;73.70;97996.31;5112689;28;20070;-58
2021/10/21 04:26:30;;;;;;;21.60;14.38;;;;;;;10.70;73.67;97999.00;5112289;28;20038;-59
2021/10/21 04:28:55;;;;;;;20.92;13.82;;;;;;;10.67;73.80;97995.81;5093666;28;20096;-60
2021/10/21 04:31:21;;;;;;;19.75;13.57;;;;;;;10.79;73.57;98005.19;5113299;28;20484;-59
2021/10/21 04:33:46;;;;;;;21.98;13.75;;;;;;;10.77;73.29;97991.97;5112635;28;20028;-59
2021/10/21 04:36:12;;;;;;;18.30;12.52;;;;;;;10.82;73.12;97990.59;5111652;28;21041;-58
2021/10/21 04:38:38;;;;;;;22.20;14.05;;;;;;;10.85;73.30;98000.97;5112401;28;20031;-60
2021/10/21 04:41:03;;;;;;;21.25;13.48;;;;;;;10.88;73.15;98003.31;5111649;28;20035;-59
2021/10/21 04:43:29;;;;;;;20.50;13.25;;;;;;;10.79;73.06;97980.25;5093855;28;20020;-56
2021/10/21 04:45:54;;;;;;;23.52;13.48;;;;;;;10.91;73.05;97997.63;5112036;28;20062;-58
2021/10/21 04:48:20;;;;;;;22.85;13.88;;;;;;;10.92;72.86;98010.00;5111613;28;20077;-59
2021/10/21 04:50:46;;;;;;;20.00;13.50;;;;;;;10.98;72.76;98014.66;5112280;28;20109;-58
2021/10/21 04:53:11;;;;;;;19.75;13.02;;;;;;;10.97;72.64;97998.75;5110486;28;20043;-57
2021/10/21 04:55:37;;;;;;;19.58;12.80;;;;;;;10.88;72.63;97981.91;5111945;28;20038;-58
2021/10/21 04:58:04;;;;;;;22.10;12.95;;;;;;;11.06;72.50;97997.75;5093896;28;20114;-57
2021/10/21 05:00:30;;;;;;;21.88;13.10;;;;;;;11.08;72.47;98003.78;5111147;28;20053;-57
2021/10/21 05:02:56;;;;;;;20.13;12.50;;;;;;;11.10;72.42;97988.34;5112047;28;20020;-58
2021/10/21 05:05:22;;;;;;;18.05;13.10;;;;;;;11.12;72.12;97966.78;5111774;28;20040;-60
2021/10/21 05:07:48;;;;;;;17.90;12.50;;;;;;;11.15;72.46;97995.88;5111100;28;20106;-55
2021/10/21 05:10:14;;;;;;;21.60;12.50;;;;;;;10.98;72.53;97960.31;5111417;28;20138;-53
2021/10/21 05:12:40;;;;;;;18.25;11.98;;;;;;;11.17;72.16;97983.16;5111262;28;20138;-57
2021/10/21 05:15:07;;;;;;;16.70;11.18;;;;;;;11.18;72.20;97980.28;5110922;28;20117;-55
2021/10/21 05:17:35;;;;;;;17.90;12.18;;;;;;;11.18;72.30;97982.16;5111016;28;20534;-55
2021/10/21 05:20:00;;;;;;;17.10;11.75;;;;;;;11.19;72.13;97965.88;5111758;28;20107;-57
2021/10/21 05:22:26;;;;;;;19.90;12.23;;;;;;;11.19;72.17;97947.13;5111131;28;20459;-57
2021/10/21 05:24:51;;;;;;;16.67;11.88;;;;;;;11.23;72.10;97952.16;5110944;28;20028;-57
2021/10/21 05:27:17;;;;;;;16.95;12.50;;;;;;;11.23;71.97;97957.53;5111539;28;20035;-60
2021/10/21 05:29:42;;;;;;;21.75;12.10;;;;;;;11.25;72.21;97977.75;5111636;28;20112;-58
2021/10/21 05:32:08;;;;;;;16.75;12.20;;;;;;;11.28;72.02;97989.97;5092751;28;20085;-59
2021/10/21 05:34:35;;;;;;;21.38;13.05;;;;;;;11.27;72.22;97977.59;5093079;28;20035;-59
2021/10/21 05:37:02;;;;;;;21.65;12.88;;;;;;;11.29;72.14;98015.75;5111464;28;20024;-58
2021/10/21 05:39:32;;;;;;;19.92;11.55;;;;;;;11.36;72.12;98015.91;5111513;28;20420;-58
2021/10/21 05:41:58;;;;;;;17.38;11.88;;;;;;;11.27;72.36;98018.59;5109807;28;20479;-57
2021/10/21 05:44:24;;;;;;;16.38;11.23;;;;;;;11.28;72.48;98030.16;5110645;28;20031;-58
2021/10/21 05:46:50;;;;;;;16.75;12.02;;;;;;;11.33;72.27;98017.06;5111988;28;20023;-58
2021/10/21 05:49:16;;;;;;;20.33;11.70;;;;;;;11.36;72.10;98023.94;5106362;28;20428;-59
2021/10/21 05:51:42;;;;;;;19.77;12.43;;;;;;;11.29;72.49;98024.63;5109237;28;20133;-59
2021/10/21 05:54:07;;;;;;;18.23;12.45;;;;;;;11.32;72.56;98026.94;5109188;28;20028;-60
2021/10/21 05:56:33;;;;;;;17.65;11.23;;;;;;;11.31;72.77;98009.19;5076006;28;20031;-60
2021/10/21 05:58:58;;;;;;;16.13;11.65;;;;;;;11.33;72.86;98017.06;5111649;28;20522;-59
2021/10/21 06:01:24;;;;;;;17.00;11.63;;;;;;;11.12;72.85;97988.19;5111028;28;20032;-59
2021/10/21 06:03:49;;;;;;;16.95;11.52;;;;;;;11.32;73.23;98018.09;5110442;28;20023;-57
2021/10/21 06:06:15;;;;;;;17.23;11.20;;;;;;;11.32;73.14;98005.50;5111097;28;20484;-60
2021/10/21 06:08:40;;;;;;;16.08;11.10;;;;;;;11.30;73.20;98006.72;5110767;28;20051;-57
2021/10/21 06:11:08;;;;;;;16.00;11.27;;;;;;;11.30;73.44;98001.34;5109921;28;20047;-57
2021/10/21 06:13:34;;;;;;;19.05;11.38;;;;;;;11.37;73.60;97982.75;5110167;28;20078;-59
2021/10/21 06:16:00;;;;;;;15.98;11.35;;;;;;;11.44;73.43;97986.38;5088719;28;20034;-55
2021/10/21 06:18:26;;;;;;;18.40;11.65;;;;;;;11.42;73.48;97989.22;5111461;28;20027;-56
2021/10/21 06:20:51;;;;;;;18.00;10.90;;;;;;;11.48;73.69;97998.41;5109103;28;20103;-52
2021/10/21 06:23:17;;;;;;;16.08;10.20;;;;;;;11.49;73.39;98002.78;5108805;28;20028;-59
2021/10/21 06:25:42;;;;;;;14.60;9.77;;;;;;;11.51;73.46;97975.81;5099583;28;20074;-59
2021/10/21 06:28:08;;;;;;;15.65;10.00;;;;;;;11.56;73.54;97978.78;5080897;28;20089;-57
2021/10/21 06:30:34;;;;;;;14.93;10.15;;;;;;;11.56;73.50;97966.22;5081485;28;20538;-59
2021/10/21 06:33:01;;;;;;;13.85;9.70;;;;;;;11.57;73.40;97975.91;5099062;28;20115;-60
2021/10/21 06:35:26;;;;;;;20.15;10.88;;;;;;;11.59;73.56;97973.91;5080708;28;20067;-53
2021/10/21 06:37:52;;;;;;;13.48;10.05;;;;;;;11.57;73.56;97992.00;5097363;28;20097;-56
2021/10/21 06:40:17;;;;;;;13.77;10.48;;;;;;;11.43;73.13;97941.84;5095597;28;20024;-57
2021/10/21 06:42:43;;;;;;;14.82;10.18;;;;;;;11.61;73.65;97982.63;5100161;28;20039;-55
2021/10/21 06:45:11;;;;;;;13.80;10.00;;;;;;;11.58;73.61;97987.47;5099592;28;20543;-58
2021/10/21 06:47:39;;;;;;;13.95;8.43;;;;;;;11.63;73.50;97980.59;5099382;28;20107;-52
2021/10/21 06:50:05;;;;;;;11.82;9.40;;;;;;;11.56;73.18;97965.38;5098184;28;20050;-51
2021/10/21 06:52:31;;;;;;;16.98;8.70;;;;;;;11.72;72.97;97975.16;5104346;28;20055;-53
2021/10/21 06:54:56;;;;;;;14.45;9.38;;;;;;;11.77;72.89;97972.78;5100778;28;20063;-59
2021/10/21 06:57:21;;;;;;;14.60;8.88;;;;;;;11.74;73.49;97967.78;5079872;28;20031;-59
2021/10/21 06:59:47;;;;;;;11.70;8.30;;;;;;;11.78;72.69;97969.09;5108415;28;20081;-59
2021/10/21 07:02:14;;;;;;;11.45;8.70;;;;;;;11.82;72.72;97957.03;5082065;28;20031;-59
2021/10/21 07:04:39;;;;;;;11.18;7.85;;;;;;;11.86;72.89;97939.56;5099474;28;20031;-55
2021/10/21 07:07:05;;;;;;;12.38;7.82;;;;;;;11.98;72.47;97925.72;5098385;28;20050;-56
2021/10/21 07:09:30;;;;;;;11.38;8.23;;;;;;;12.14;71.73;97935.50;5084895;28;20507;-58
2021/10/21 07:11:55;;;;;;;9.57;7.50;;;;;;;11.90;71.65;97884.56;5104114;28;20023;-59
2021/10/21 07:14:21;;;;;;;15.43;8.93;;;;;;;12.32;71.29;97957.50;5102375;28;20046;-58
2021/10/21 07:16:46;;;;;;;12.40;8.00;;;;;;;12.33;71.00;97972.56;5097510;28;20466;-59
2021/10/21 07:19:12;;;;;;;13.52;9.10;;;;;;;12.36;71.21;97984.81;5112470;28;20039;-56
2021/10/21 07:21:38;;;;;;;12.52;8.32;;;;;;;12.31;71.41;97987.22;5082148;28;20028;-56
2021/10/21 07:24:03;;;;;;;10.80;8.20;;;;;;;12.28;71.27;97991.06;5114290;28;20043;-60
2021/10/21 07:26:29;;;;;;;14.77;8.13;;;;;;;12.25;71.52;97994.13;5114229;28;20089;-55
2021/10/21 07:28:54;;;;;;;11.38;8.45;;;;;;;12.22;71.72;97997.16;5112821;28;20028;-60
2021/10/21 07:31:21;;;;;;;11.10;8.07;;;;;;;12.08;71.76;97971.09;5094706;28;20968;-61
2021/10/21 07:33:47;;;;;;;11.07;8.18;;;;;;;12.09;71.71;97967.41;5113917;28;20077;-57
2021/10/21 07:36:13;;;;;;;12.18;8.50;;;;;;;12.26;71.61;97987.75;5112754;28;20028;-60
2021/10/21 07:38:38;;;;;;;14.90;9.35;;;;;;;12.18;71.72;97987.81;5113187;28;20027;-57
2021/10/21 07:41:04;;;;;;;16.73;8.85;;;;;;;12.18;71.64;97977.91;5113674;28;20031;-60
2021/10/21 07:43:31;;;;;;;12.55;8.93;;;;;;;12.35;71.54;98016.16;5114583;28;20028;-60
2021/10/21 07:45:56;;;;;;;12.57;8.27;;;;;;;12.39;71.71;98015.78;5114162;28;20087;-61
2021/10/21 07:48:22;;;;;;;16.15;9.07;;;;;;;12.40;71.36;98006.72;5113299;28;20192;-60
2021/10/21 07:50:48;;;;;;;12.13;9.02;;;;;;;12.42;71.24;97996.66;5113982;28;20570;-60
2021/10/21 07:53:14;;;;;;;12.25;9.23;;;;;;;12.48;71.14;98020.91;5113777;28;20139;-60
2021/10/21 07:55:39;;;;;;;13.85;8.73;;;;;;;12.51;70.96;98030.47;5095137;28;20471;-61
2021/10/21 07:58:06;;;;;;;13.20;9.32;;;;;;;12.47;71.20;98008.50;5113179;28;20047;-61
2021/10/21 08:00:32;;;;;;;14.48;9.82;;;;;;;12.53;70.98;98032.97;5094936;28;20030;-62
2021/10/21 08:02:59;;;;;;;18.75;9.27;;;;;;;12.57;70.92;98035.13;5113570;28;20020;-61
2021/10/21 08:05:24;;;;;;;15.20;9.30;;;;;;;12.60;70.83;98023.19;5113144;28;20057;-61
2021/10/21 08:07:50;;;;;;;13.88;9.70;;;;;;;12.39;70.64;97975.53;5113070;28;20035;-61
2021/10/21 08:10:18;;;;;;;12.48;8.48;;;;;;;12.60;70.61;97997.16;5113440;28;20071;-57
2021/10/21 08:12:44;;;;;;;12.32;9.82;;;;;;;12.60;70.59;98002.53;5113714;28;20469;-60
2021/10/21 08:15:11;;;;;;;16.48;10.13;;;;;;;12.67;70.54;97999.13;5113533;28;20081;-61
2021/10/21 08:17:39;;;;;;;18.58;9.57;;;;;;;12.62;70.85;97994.31;5112843;28;20031;-60
2021/10/21 08:20:06;;;;;;;13.75;9.38;;;;;;;12.73;70.21;97993.84;5113187;28;20040;-62
2021/10/21 08:22:32;;;;;;;15.30;9.93;;;;;;;12.76;70.17;97996.16;5078396;28;20035;-60
2021/10/21 08:24:58;;;;;;;17.65;10.15;;;;;;;12.75;70.26;98002.56;5113025;28;20034;-60
2021/10/21 08:27:24;;;;;;;20.13;9.85;;;;;;;12.75;69.65;97986.44;5112737;28;20079;-61
2021/10/21 08:29:51;;;;;;;13.70;9.57;;;;;;;12.67;69.82;97975.78;5112658;28;20456;-61
2021/10/21 08:32:17;;;;;;;13.43;9.30;;;;;;;12.80;69.79;97996.66;5112144;28;20035;-57
2021/10/21 08:34:42;;;;;;;17.02;9.63;;;;;;;12.54;69.83;97957.63;5112516;28;20028;-60
2021/10/21 08:37:11;;;;;;;13.07;9.25;;;;;;;12.79;69.81;97994.97;5094432;28;20023;-61
2021/10/21 08:39:41;;;;;;;16.23;9.73;;;;;;;12.86;69.87;97989.72;5112364;28;20034;-61
2021/10/21 08:42:07;;;;;;;13.13;9.32;;;;;;;12.83;69.73;98000.81;5112571;28;20032;-60
2021/10/21 08:44:40;;;;;;;13.23;9.65;;;;;;;12.89;69.37;98000.91;5112501;28;20102;-61
2021/10/21 08:47:07;;;;;;;13.45;9.18;;;;;;;12.89;69.42;98014.34;5112834;28;20075;-62
2021/10/21 08:49:36;;;;;;;14.27;9.07;;;;;;;12.77;69.39;97954.03;5112200;28;20375;-61
2021/10/21 08:52:02;;;;;;;15.38;9.48;;;;;;;12.86;69.19;97989.72;5112440;28;20431;-61
2021/10/21 08:54:27;;;;;;;14.10;9.23;;;;;;;12.94;68.86;97980.75;5112073;28;20023;-61
2021/10/21 08:56:53;;;;;;;12.32;9.20;;;;;;;12.91;69.21;97979.25;5111762;28;20104;-61
2021/10/21 08:59:19;;;;;;;15.40;9.15;;;;;;;12.87;69.31;97976.09;5112072;28;20464;-61
2021/10/21 09:01:47;;;;;;;15.38;10.30;;;;;;;12.81;69.68;97976.00;5112658;28;20459;-60
2021/10/21 09:09:20;;;;;;;16.00;9.88;;;;;;;13.00;69.43;98007.66;5112110;28;20043;-60
2021/10/21 09:12:11;;;;;;;14.90;9.30;;;;;;;13.06;69.32;98028.44;5112665;28;20307;-59
2021/10/21 09:14:45;;;;;;;14.85;10.13;;;;;;;12.96;69.25;98019.00;5111702;28;20040;-63
2021/10/21 09:17:12;;;;;;;13.50;9.70;;;;;;;12.95;69.25;98018.13;5111971;28;20131;-58
2021/10/21 09:19:41;;;;;;;12.95;9.75;;;;;;;12.98;69.38;98014.25;5112428;28;20019;-61
2021/10/21 09:22:49;;;;;;;13.57;9.27;;;;;;;13.17;69.12;98026.31;5111304;28;20039;-63
2021/10/21 09:25:22;;;;;;;14.25;8.73;;;;;;;13.16;68.49;98033.56;5055328;28;20126;-61
2021/10/21 09:27:48;;;;;;;14.10;8.57;;;;;;;13.14;68.51;98030.22;5112036;28;20039;-59
2021/10/21 09:30:19;;;;;;;14.73;8.88;;;;;;;13.14;68.45;98024.84;5111776;28;20114;-61
2021/10/21 09:32:46;;;;;;;13.02;8.90;;;;;;;13.22;68.36;98034.63;5111287;28;20030;-61
2021/10/21 09:35:14;;;;;;;12.80;9.13;;;;;;;13.26;68.06;98027.91;5092744;28;20023;-60
2021/10/21 09:37:42;;;;;;;19.02;9.27;;;;;;;13.27;68.08;98017.97;5112005;28;20391;-61
2021/10/21 09:40:22;;;;;;;12.40;9.18;;;;;;;13.31;67.86;98019.25;5111033;28;20460;-59
2021/10/21 09:42:56;;;;;;;15.88;9.43;;;;;;;13.20;67.84;97991.00;5111033;28;20038;-60
2021/10/21 09:45:41;;;;;;;13.32;8.70;;;;;;;13.38;68.10;98028.25;5110524;28;20038;-61
2021/10/21 09:48:08;;;;;;;14.95;8.15;;;;;;;13.27;68.10;98034.94;5111830;28;20043;-60
2021/10/21 09:50:39;;;;;;;11.85;8.90;;;;;;;13.23;68.19;98030.94;5111419;28;20038;-63
2021/10/21 09:53:26;;;;;;;12.95;8.85;;;;;;;13.39;68.02;98037.16;5111112;28;20031;-61
2021/10/21 09:55:54;;;;;;;14.00;8.20;;;;;;;13.31;67.82;98030.84;5111025;28;20035;-61
2021/10/21 09:58:22;;;;;;;13.07;8.23;;;;;;;13.34;67.97;98027.78;5111345;28;20059;-60
2021/10/21 10:00:49;;;;;;;14.25;8.68;;;;;;;13.25;67.96;98002.03;5111106;28;20049;-61
2021/10/21 10:03:19;;;;;;;13.05;8.35;;;;;;;13.46;67.65;98027.34;5092263;28;20028;-61
2021/10/21 10:05:46;;;;;;;13.18;8.10;;;;;;;13.47;67.39;98039.75;5092028;28;20398;-61
2021/10/21 10:08:13;;;;;;;10.43;8.27;;;;;;;13.45;67.44;98047.19;5111147;28;20096;-61
2021/10/21 10:10:44;;;;;;;13.05;8.23;;;;;;;13.53;67.67;98052.47;5110663;28;20051;-62
2021/10/21 10:13:11;;;;;;;11.73;8.23;;;;;;;13.50;67.63;98050.13;5110894;28;20101;-61
2021/10/21 10:15:38;;;;;;;12.38;7.47;;;;;;;13.51;67.43;98035.72;5111181;28;20039;-62
2021/10/21 10:18:07;;;;;;;13.38;8.35;;;;;;;13.58;67.29;98043.84;5110858;28;20497;-63
2021/10/21 10:20:34;;;;;;;14.15;8.35;;;;;;;13.51;67.36;98046.47;5110522;28;20020;-62
2021/10/21 10:23:03;;;;;;;11.70;8.77;;;;;;;13.56;67.44;98048.56;5109788;28;20851;-64
2021/10/21 10:25:28;;;;;;;12.35;7.88;;;;;;;13.59;67.03;98034.75;5110392;28;20027;-61
2021/10/21 10:28:06;;;;;;;13.10;8.40;;;;;;;13.69;66.87;98027.22;5110185;28;20156;-60
2021/10/21 10:30:42;;;;;;;13.38;7.82;;;;;;;13.74;66.65;98015.88;5110239;28;20028;-62
2021/10/21 10:33:07;;;;;;;12.95;7.68;;;;;;;13.77;66.43;98013.66;5110370;28;20463;-61
2021/10/21 10:35:39;;;;;;;14.00;7.53;;;;;;;13.88;66.14;98023.09;5092048;28;20030;-66
2021/10/21 10:38:09;;;;;;;11.75;7.95;;;;;;;14.00;66.12;98018.06;5110572;28;20036;-64
2021/10/21 10:40:42;;;;;;;11.23;7.95;;;;;;;14.02;65.80;98007.13;5110942;28;20057;-64
2021/10/21 10:43:08;;;;;;;13.48;8.13;;;;;;;13.95;65.44;97990.03;5111385;28;20478;-62
2021/10/21 10:45:41;;;;;;;12.55;8.23;;;;;;;14.29;65.12;98023.53;5109932;28;20030;-64
2021/10/21 10:48:07;;;;;;;12.18;8.15;;;;;;;14.34;64.58;98008.44;5096880;28;20375;-61
2021/10/21 10:50:33;;;;;;;11.13;7.82;;;;;;;14.43;64.29;98011.84;5109152;28;20119;-60
2021/10/21 10:53:00;;;;;;;11.00;7.95;;;;;;;14.46;64.64;98027.59;5094977;28;20062;-58
2021/10/21 10:55:46;;;;;;;12.60;8.38;;;;;;;14.59;64.49;98028.75;5113753;28;20035;-56
2021/10/21 10:58:29;;;;;;;12.05;8.35;;;;;;;14.62;64.33;98026.53;5113176;28;20058;-57
2021/10/21 11:00:59;;;;;;;14.05;8.15;;;;;;;14.53;64.21;98018.78;5113008;28;20043;-59
2021/10/21 11:03:38;;;;;;;13.93;7.97;;;;;;;14.59;64.56;98012.59;5095064;28;20135;-55
2021/10/21 11:06:13;;;;;;;10.45;7.55;;;;;;;14.61;64.36;98016.78;5113751;28;20027;-57
2021/10/21 11:08:47;;;;;;;12.18;7.82;;;;;;;14.64;64.33;98021.78;5114016;28;20023;-52
2021/10/21 11:11:39;;;;;;;12.90;7.60;;;;;;;14.69;64.30;98020.34;5113478;28;20071;-53
2021/10/21 11:14:09;;;;;;;13.20;8.27;;;;;;;14.65;64.28;98033.34;5113980;28;20039;-54
2021/10/21 11:16:47;;;;;;;11.25;7.60;;;;;;;14.63;64.36;98038.09;5113714;28;20020;-56
2021/10/21 11:19:45;;;;;;;13.15;8.48;;;;;;;14.75;64.34;98046.53;5095176;28;20139;-57
2021/10/21 11:22:31;;;;;;;13.98;8.48;;;;;;;14.68;64.01;98043.75;5108044;28;20028;-57
2021/10/21 11:25:00;;;;;;;14.02;8.57;;;;;;;14.68;63.90;98032.97;5113197;28;20035;-55
2021/10/21 11:27:39;;;;;;;15.32;8.30;;;;;;;14.68;64.26;98018.69;5092916;28;20028;-60
2021/10/21 11:30:11;;;;;;;10.90;7.95;;;;;;;14.72;64.56;98025.38;5074789;28;20034;-58